Map

Track Data

SID SEASON NUMBER BASIN SUBBASIN NAME ISO_TIME NATURE LAT LON WMO_WIND WMO_PRES WMO_AGENCY TRACK_TYPE DIST2LAND LANDFALL IFLAG USA_AGENCY USA_ATCF_ID USA_LAT USA_LON USA_RECORD USA_STATUS USA_WIND USA_PRES USA_SSHS USA_R34_NE USA_R34_SE USA_R34_SW USA_R34_NW USA_R50_NE USA_R50_SE USA_R50_SW USA_R50_NW USA_R64_NE USA_R64_SE USA_R64_SW USA_R64_NW USA_POCI USA_ROCI USA_RMW USA_EYE TOKYO_LAT TOKYO_LON TOKYO_GRADE TOKYO_WIND TOKYO_PRES TOKYO_R50_DIR TOKYO_R50_LONG TOKYO_R50_SHORT TOKYO_R30_DIR TOKYO_R30_LONG TOKYO_R30_SHORT TOKYO_LAND CMA_LAT CMA_LON CMA_CAT CMA_WIND CMA_PRES HKO_LAT HKO_LON HKO_CAT HKO_WIND HKO_PRES NEWDELHI_LAT NEWDELHI_LON NEWDELHI_GRADE NEWDELHI_WIND NEWDELHI_PRES NEWDELHI_CI NEWDELHI_DP NEWDELHI_POCI REUNION_LAT REUNION_LON REUNION_TYPE REUNION_WIND REUNION_PRES REUNION_TNUM REUNION_CI REUNION_RMW REUNION_R34_NE REUNION_R34_SE REUNION_R34_SW REUNION_R34_NW REUNION_R50_NE REUNION_R50_SE REUNION_R50_SW REUNION_R50_NW REUNION_R64_NE REUNION_R64_SE REUNION_R64_SW REUNION_R64_NW BOM_LAT BOM_LON BOM_TYPE BOM_WIND BOM_PRES BOM_TNUM BOM_CI BOM_RMW BOM_R34_NE BOM_R34_SE BOM_R34_SW BOM_R34_NW BOM_R50_NE BOM_R50_SE BOM_R50_SW BOM_R50_NW BOM_R64_NE BOM_R64_SE BOM_R64_SW BOM_R64_NW BOM_ROCI BOM_POCI BOM_EYE BOM_POS_METHOD BOM_PRES_METHOD NADI_LAT NADI_LON NADI_CAT NADI_WIND NADI_PRES WELLINGTON_LAT WELLINGTON_LON WELLINGTON_WIND WELLINGTON_PRES DS824_LAT DS824_LON DS824_STAGE DS824_WIND DS824_PRES TD9636_LAT TD9636_LON TD9636_STAGE TD9636_WIND TD9636_PRES TD9635_LAT TD9635_LON TD9635_WIND TD9635_PRES TD9635_ROCI NEUMANN_LAT NEUMANN_LON NEUMANN_CLASS NEUMANN_WIND NEUMANN_PRES MLC_LAT MLC_LON MLC_CLASS MLC_WIND MLC_PRES USA_GUST BOM_GUST BOM_GUST_PER REUNION_GUST REUNION_GUST_PER USA_SEAHGT USA_SEARAD_NE USA_SEARAD_SE USA_SEARAD_SW USA_SEARAD_NW STORM_SPEED STORM_DIR
1913096S12148 1913 25 SP EA NOT_NAMED 1913-04-05 23:00:00 NR -12.2000 148.000 main 223 223 __________O___ -1 -12.2000 148.000 7 23 152
1913096S12148 1913 25 SP EA NOT_NAMED 1913-04-06 00:00:00 NR -12.5310 148.181 main 258 258 __________P___ -1 -12.5310 148.181 7 23 152
1913096S12148 1913 25 SP EA NOT_NAMED 1913-04-06 03:00:00 NR -13.5176 148.721 main 350 350 __________P___ -1 -13.5176 148.721 7 22 152
1913096S12148 1913 25 SP EA NOT_NAMED 1913-04-06 06:00:00 NR -14.4825 149.240 main 418 418 __________P___ -1 -14.4825 149.240 7 21 153
1913096S12148 1913 25 SP EA NOT_NAMED 1913-04-06 09:00:00 NR -15.4100 149.716 main 443 437 __________P___ -1 -15.4100 149.716 7 20 154
1913096S12148 1913 25 SP EA NOT_NAMED 1913-04-06 11:00:00 NR -16.0000 150.000 main 444 440 __________O___ -1 -16.0000 150.000 7 19 156
1913096S12148 1913 25 SP EA NOT_NAMED 1913-04-06 12:00:00 NR -16.2850 150.130 main 443 398 __________P___ -1 -16.2850 150.130 7 18 157
1913096S12148 1913 25 SP EA NOT_NAMED 1913-04-06 15:00:00 NR -17.1000 150.480 main 398 349 __________P___ -1 -17.1000 150.480 7 17 158
1913096S12148 1913 25 SP EA NOT_NAMED 1913-04-06 18:00:00 NR -17.8574 150.791 main 340 313 __________P___ -1 -17.8574 150.791 7 16 158
1913096S12148 1913 25 SP EA NOT_NAMED 1913-04-06 21:00:00 NR -18.5603 151.091 main 307 296 __________P___ -1 -18.5603 151.091 7 15 157
1913096S12148 1913 25 SP EA NOT_NAMED 1913-04-06 23:00:00 NR -19.0000 151.300 main 299 294 __________O___ -1 -19.0000 151.300 7 15 155
1913096S12148 1913 25 SP EA NOT_NAMED 1913-04-07 00:00:00 NR -19.2210 151.410 main 298 293 __________P___ -1 -19.2210 151.410 7 14 153
1913096S12148 1913 25 SP EA NOT_NAMED 1913-04-07 03:00:00 NR -19.8482 151.748 main 298 266 __________P___ -1 -19.8482 151.748 7 14 151
1913096S12148 1913 25 SP EA NOT_NAMED 1913-04-07 06:00:00 NR -20.4267 152.108 main 266 242 __________P___ -1 -20.4267 152.108 7 13 147
1913096S12148 1913 25 SP EA NOT_NAMED 1913-04-07 09:00:00 NR -20.9629 152.506 main 242 242 __________P___ -1 -20.9629 152.506 7 13 143
1913096S12148 1913 25 SP EA NOT_NAMED 1913-04-07 11:00:00 NR -21.3000 152.800 main 246 246 __________O___ -1 -21.3000 152.800 7 13 139
1913096S12148 1913 25 SP EA NOT_NAMED 1913-04-07 12:00:00 NR -21.4671 152.972 main 252 252 __________P___ -1 -21.4671 152.972 7 14 133
1913096S12148 1913 25 SP EA NOT_NAMED 1913-04-07 15:00:00 NR -21.9407 153.532 main 285 280 __________P___ -1 -21.9407 153.532 7 14 131
1913096S12148 1913 25 SP EA NOT_NAMED 1913-04-07 18:00:00 NR -22.3845 154.116 main 280 259 __________P___ -1 -22.3845 154.116 7 14 130
1913096S12148 1913 25 SP EA NOT_NAMED 1913-04-07 21:00:00 NR -22.8138 154.672 main 265 252 __________P___ -1 -22.8138 154.672 7 13 131
1913096S12148 1913 25 SP EA NOT_NAMED 1913-04-07 23:00:00 NR -23.1000 155.000 main 256 248 __________O___ -1 -23.1000 155.000 7 12 136
1913096S12148 1913 25 SP EA NOT_NAMED 1913-04-08 00:00:00 NR -23.2533 155.138 main 247 247 __________P___ -1 -23.2533 155.138 7 12 143
1913096S12148 1913 25 SP EA NOT_NAMED 1913-04-08 03:00:00 NR -23.7151 155.497 main 254 249 __________P___ -1 -23.7151 155.497 7 11 147
1913096S12148 1913 25 SP EA NOT_NAMED 1913-04-08 06:00:00 NR -24.1728 155.791 main 258 258 __________P___ -1 -24.1728 155.791 7 10 151
1913096S12148 1913 25 SP EA NOT_NAMED 1913-04-08 09:00:00 NR -24.6166 156.044 main 266 266 __________P___ -1 -24.6166 156.044 7 10 153
1913096S12148 1913 25 SP EA NOT_NAMED 1913-04-08 11:00:00 NR -24.9000 156.200 main 282 281 __________O___ -1 -24.9000 156.200 7 9 152
1913096S12148 1913 25 SP EA NOT_NAMED 1913-04-08 12:00:00 NR -25.0313 156.287 main 292 292 __________P___ -1 -25.0313 156.287 7 9 150
1913096S12148 1913 25 SP EA NOT_NAMED 1913-04-08 15:00:00 NR -25.4071 156.530 main 314 314 __________P___ -1 -25.4071 156.530 7 9 150
1913096S12148 1913 25 SP EA NOT_NAMED 1913-04-08 18:00:00 NR -25.7706 156.754 main 352 352 __________P___ -1 -25.7706 156.754 7 8 152
1913096S12148 1913 25 SP EA NOT_NAMED 1913-04-08 21:00:00 NR -26.1406 156.964 main 381 381 __________P___ -1 -26.1406 156.964 7 8 154
1913096S12148 1913 25 SP EA NOT_NAMED 1913-04-08 23:00:00 NR -26.4000 157.100 main 394 392 __________O___ -1 -26.4000 157.100 7 9 156
1913096S12148 1913 25 SP EA NOT_NAMED 1913-04-09 00:00:00 NR -26.5484 157.166 main 401 388 __________P___ -1 -26.5484 157.166 7 10 159
1913096S12148 1913 25 SP EA NOT_NAMED 1913-04-09 03:00:00 NR -27.0140 157.359 main 397 390 __________P___ -1 -27.0140 157.359 7 10 160
1913096S12148 1913 25 SP EA NOT_NAMED 1913-04-09 06:00:00 NR -27.4855 157.550 main 390 390 __________P___ -1 -27.4855 157.550 7 10 159
1913096S12148 1913 25 SP EA NOT_NAMED 1913-04-09 09:00:00 NR -27.9319 157.752 main 413 411 __________P___ -1 -27.9319 157.752 7 9 157
1913096S12148 1913 25 SP EA NOT_NAMED 1913-04-09 11:00:00 NR -28.2000 157.900 main 420 420 __________O___ -1 -28.2000 157.900 7 9 153
1913096S12148 1913 25 SP EA NOT_NAMED 1913-04-09 12:00:00 NR -28.3221 157.979 main 430 430 __________P___ -1 -28.3221 157.979 7 8 146
1913096S12148 1913 25 SP EA NOT_NAMED 1913-04-09 15:00:00 NR -28.6437 158.234 main 448 448 __________P___ -1 -28.6437 158.234 7 8 142
1913096S12148 1913 25 SP EA NOT_NAMED 1913-04-09 18:00:00 NR -28.9135 158.511 main 476 476 __________P___ -1 -28.9135 158.511 7 7 136
1913096S12148 1913 25 SP EA NOT_NAMED 1913-04-09 21:00:00 NR -29.1506 158.802 main 505 505 __________P___ -1 -29.1506 158.802 7 7 132
1913096S12148 1913 25 SP EA NOT_NAMED 1913-04-09 23:00:00 NR -29.3000 159.000 main 525 __________O___ -1 -29.3000 159.000 7 7 131

Digital Typhoon Data and Search

About IBTrACS Database

This database is a web-friendly format of International Best Track Archive for Climate Stewardship (IBTrACS), a global best track data archive curated by NOAA dating back to 1842.

Updated: 2021-12-01